createdAt,value
2023-03-31T00:00:36.476Z,5.24
2023-03-31T00:01:44.448Z,5.24
2023-03-31T00:02:46.606Z,5.23
2023-03-31T00:03:48.951Z,5.23
2023-03-31T00:04:54.077Z,5.22
2023-03-31T00:06:00.409Z,5.21
2023-03-31T00:07:02.403Z,5.20
2023-03-31T00:08:04.876Z,5.19
2023-03-31T00:09:11.573Z,5.19
2023-03-31T00:10:17.916Z,5.25
2023-03-31T00:11:22.789Z,5.23
2023-03-31T00:12:24.668Z,5.26
2023-03-31T00:13:27.029Z,5.23
2023-03-31T00:14:28.955Z,5.20
2023-03-31T00:15:31.027Z,5.23
2023-03-31T00:16:38.332Z,5.21
2023-03-31T00:17:40.472Z,5.20
2023-03-31T00:18:47.773Z,5.19
2023-03-31T00:19:50.099Z,5.20
2023-03-31T00:20:53.756Z,5.26
2023-03-31T00:21:55.826Z,5.24
2023-03-31T00:22:57.938Z,5.21
2023-03-31T00:24:02.884Z,5.21
2023-03-31T00:25:06.201Z,5.28
2023-03-31T00:26:08.360Z,5.22
2023-03-31T00:27:11.956Z,5.22
2023-03-31T00:28:13.857Z,5.18
2023-03-31T00:29:16.285Z,5.15
2023-03-31T00:30:18.593Z,5.16
2023-03-31T00:31:22.464Z,5.16
2023-03-31T00:32:24.481Z,5.12
2023-03-31T00:33:26.905Z,5.10
2023-03-31T00:34:28.963Z,5.13
2023-03-31T00:35:32.151Z,5.12
2023-03-31T00:36:36.975Z,5.08
2023-03-31T00:37:39.242Z,5.06
2023-03-31T00:38:46.046Z,5.05
2023-03-31T00:39:48.182Z,5.04
2023-03-31T00:40:52.548Z,5.05
2023-03-31T00:41:55.943Z,5.03
2023-03-31T00:42:58.024Z,5.04
2023-03-31T00:44:02.500Z,5.03
2023-03-31T00:45:27.495Z,5.02
2023-03-31T00:46:48.457Z,5.00
2023-03-31T00:48:10.501Z,5.01
2023-03-31T00:49:36.362Z,5.02
2023-03-31T00:50:49.496Z,5.03
2023-03-31T00:51:54.918Z,4.99
2023-03-31T00:53:06.802Z,4.98
2023-03-31T00:54:08.833Z,4.98
2023-03-31T00:55:33.984Z,4.99
2023-03-31T00:56:39.792Z,4.98
2023-03-31T00:57:44.934Z,4.96
2023-03-31T00:58:47.482Z,4.95
2023-03-31T00:59:58.987Z,4.91
2023-03-31T01:01:03.683Z,4.95
2023-03-31T01:02:06.003Z,4.91
2023-03-31T01:03:10.311Z,4.90
2023-03-31T01:04:17.036Z,4.92
2023-03-31T01:05:54.973Z,4.92
2023-03-31T01:07:09.445Z,4.91
2023-03-31T01:08:12.438Z,4.88
2023-03-31T01:09:17.155Z,4.88
2023-03-31T01:10:19.556Z,4.87
2023-03-31T01:11:28.158Z,4.84
2023-03-31T01:12:32.429Z,4.85
2023-03-31T01:13:39.977Z,4.86
2023-03-31T01:14:42.450Z,4.89
2023-03-31T01:15:46.034Z,4.88
2023-03-31T01:16:48.251Z,4.89
2023-03-31T01:17:52.812Z,4.84
2023-03-31T01:18:57.764Z,4.87
2023-03-31T01:20:17.016Z,4.80
2023-03-31T01:22:00.088Z,4.78
2023-03-31T01:23:23.123Z,4.75
2023-03-31T01:24:52.177Z,4.74
2023-03-31T01:26:12.924Z,4.75
2023-03-31T01:27:23.876Z,4.74
2023-03-31T01:28:33.840Z,4.70
2023-03-31T01:29:44.803Z,4.72
2023-03-31T01:31:03.863Z,4.72
2023-03-31T01:32:18.085Z,4.68
2023-03-31T01:33:43.055Z,4.71
2023-03-31T01:35:06.612Z,4.72
2023-03-31T01:36:11.696Z,4.70
2023-03-31T01:37:42.870Z,4.66
2023-03-31T01:39:09.275Z,4.71
2023-03-31T01:40:20.585Z,4.68
2023-03-31T01:41:40.804Z,4.67
2023-03-31T01:42:58.269Z,4.66
2023-03-31T01:44:22.721Z,4.70
2023-03-31T01:45:46.603Z,4.63
2023-03-31T01:49:10.042Z,4.58
2023-03-31T01:50:25.356Z,4.56
2023-03-31T01:52:18.547Z,4.55
2023-03-31T01:53:29.396Z,4.50
2023-03-31T01:54:54.479Z,4.52
2023-03-31T01:56:16.663Z,4.50
2023-03-31T01:57:33.928Z,4.47
2023-03-31T01:58:49.645Z,4.43
2023-03-31T02:00:09.029Z,4.42
2023-03-31T02:01:20.051Z,4.40
2023-03-31T02:02:30.179Z,4.37
2023-03-31T02:03:40.507Z,4.37
2023-03-31T02:04:53.968Z,4.37
2023-03-31T02:06:00.261Z,4.34
2023-03-31T02:07:08.047Z,4.35
2023-03-31T02:08:16.038Z,4.34
2023-03-31T02:09:22.737Z,4.35
2023-03-31T02:10:27.467Z,4.37
2023-03-31T02:11:32.124Z,4.35
2023-03-31T02:12:36.614Z,4.38
2023-03-31T02:13:42.101Z,4.35
2023-03-31T02:14:47.841Z,4.40
2023-03-31T02:15:55.726Z,4.37
2023-03-31T02:17:02.383Z,4.39
2023-03-31T02:18:11.383Z,4.39
2023-03-31T02:19:18.911Z,4.37
2023-03-31T02:20:23.307Z,4.35
2023-03-31T02:21:25.414Z,4.32
2023-03-31T02:22:31.734Z,4.29
2023-03-31T02:23:37.777Z,4.30
2023-03-31T02:24:41.606Z,4.26
2023-03-31T02:25:53.343Z,4.27
2023-03-31T02:27:05.607Z,4.30
2023-03-31T02:28:18.022Z,4.24
2023-03-31T02:29:20.937Z,4.21
2023-03-31T02:30:23.790Z,4.23
2023-03-31T02:31:48.492Z,4.23
2023-03-31T02:32:50.599Z,4.20
2023-03-31T02:33:52.823Z,4.18
2023-03-31T02:34:56.281Z,4.17
2023-03-31T02:35:59.794Z,4.15
2023-03-31T02:37:02.395Z,4.19
2023-03-31T02:38:06.915Z,4.14
2023-03-31T02:39:12.356Z,4.13
2023-03-31T02:40:21.859Z,4.11
2023-03-31T02:41:24.269Z,4.15
2023-03-31T02:42:26.637Z,4.11
2023-03-31T02:43:28.913Z,4.08
2023-03-31T02:44:31.251Z,4.10
2023-03-31T02:45:41.427Z,4.14
2023-03-31T02:46:44.633Z,4.13
2023-03-31T02:47:46.899Z,4.16
2023-03-31T02:48:52.945Z,4.14
2023-03-31T02:49:57.993Z,4.16
2023-03-31T02:51:09.228Z,4.11
2023-03-31T02:52:44.709Z,4.14
2023-03-31T02:54:33.717Z,4.10
2023-03-31T02:55:47.516Z,4.13
2023-03-31T02:56:52.762Z,4.15
2023-03-31T02:58:45.290Z,4.29
2023-03-31T02:59:58.046Z,4.29
2023-03-31T03:01:32.143Z,4.23
2023-03-31T03:02:52.774Z,4.29
2023-03-31T03:04:17.273Z,4.24
2023-03-31T03:05:50.033Z,4.28
2023-03-31T03:07:13.069Z,4.37
2023-03-31T03:08:27.600Z,4.42
2023-03-31T03:09:43.974Z,4.37
2023-03-31T03:10:52.089Z,4.46
2023-03-31T03:12:14.271Z,4.48
2023-03-31T03:13:34.408Z,4.62
2023-03-31T03:14:57.997Z,4.61
2023-03-31T03:16:19.348Z,4.58
2023-03-31T03:17:29.285Z,4.66
2023-03-31T03:18:32.094Z,4.81
2023-03-31T03:19:34.236Z,4.78
2023-03-31T03:20:36.762Z,4.78
2023-03-31T03:21:38.696Z,4.76
2023-03-31T03:22:41.393Z,4.75
2023-03-31T03:23:43.389Z,4.76
2023-03-31T03:24:45.470Z,4.76
2023-03-31T03:25:48.396Z,4.76
2023-03-31T03:26:50.436Z,4.84
2023-03-31T03:27:55.126Z,4.75
2023-03-31T03:28:57.681Z,4.76
2023-03-31T03:29:59.758Z,4.88
2023-03-31T03:31:01.924Z,4.95
2023-03-31T03:32:03.918Z,4.99
2023-03-31T03:33:07.153Z,5.02
2023-03-31T03:34:11.815Z,5.11
2023-03-31T03:35:14.142Z,5.02
2023-03-31T03:36:16.178Z,4.94
2023-03-31T03:37:18.308Z,5.05
2023-03-31T03:38:20.272Z,4.98
2023-03-31T03:39:22.423Z,4.93
2023-03-31T03:40:24.458Z,4.87
2023-03-31T03:41:26.759Z,4.86
2023-03-31T03:42:29.209Z,4.88
2023-03-31T03:43:31.343Z,5.00
2023-03-31T03:44:33.350Z,4.92
2023-03-31T03:45:35.530Z,4.84
2023-03-31T03:46:37.589Z,4.78
2023-03-31T03:47:39.708Z,4.69
2023-03-31T03:48:41.726Z,4.61
2023-03-31T03:49:43.916Z,4.50
2023-03-31T03:50:47.165Z,4.61
2023-03-31T03:51:49.386Z,4.70
2023-03-31T03:52:51.886Z,4.80
2023-03-31T03:53:54.182Z,4.95
2023-03-31T03:54:56.158Z,4.96
2023-03-31T03:55:59.574Z,4.86
2023-03-31T03:57:01.566Z,4.75
2023-03-31T03:58:03.677Z,5.01
2023-03-31T03:59:05.626Z,4.88
2023-03-31T04:00:12.695Z,4.74
2023-03-31T04:01:14.910Z,4.49
2023-03-31T04:02:17.081Z,4.40
2023-03-31T04:03:19.390Z,4.35
2023-03-31T04:04:21.663Z,4.30
2023-03-31T04:05:23.813Z,4.32
2023-03-31T04:06:26.344Z,4.27
2023-03-31T04:07:28.387Z,4.26
2023-03-31T04:08:30.486Z,4.22
2023-03-31T04:09:32.674Z,4.25
2023-03-31T04:10:35.775Z,4.30
2023-03-31T04:11:37.706Z,4.21
2023-03-31T04:12:39.646Z,4.19
2023-03-31T04:13:41.804Z,4.10
2023-03-31T04:14:43.928Z,4.30
2023-03-31T04:15:46.870Z,4.22
2023-03-31T04:16:49.153Z,4.10
2023-03-31T04:17:54.873Z,4.01
2023-03-31T04:18:59.287Z,3.99
2023-03-31T04:20:05.066Z,4.00
2023-03-31T04:21:07.045Z,3.98
2023-03-31T04:22:12.043Z,3.97
2023-03-31T04:23:15.300Z,3.98
2023-03-31T04:24:21.897Z,4.02
2023-03-31T04:25:24.117Z,3.98
2023-03-31T04:26:31.483Z,4.07
2023-03-31T04:27:35.201Z,4.08
2023-03-31T04:28:38.734Z,4.05
2023-03-31T04:29:40.810Z,4.09
2023-03-31T04:30:43.652Z,4.20
2023-03-31T04:31:45.680Z,4.19
2023-03-31T04:32:50.920Z,4.16
2023-03-31T04:33:53.983Z,4.18
2023-03-31T04:35:03.533Z,4.26
2023-03-31T04:36:18.950Z,4.28
2023-03-31T04:37:21.066Z,4.46
2023-03-31T04:38:24.577Z,4.56
2023-03-31T04:39:31.146Z,4.44
2023-03-31T04:40:35.515Z,4.37
2023-03-31T04:41:37.481Z,4.42
2023-03-31T04:42:39.626Z,4.48
2023-03-31T04:43:42.519Z,4.47
2023-03-31T04:44:44.555Z,4.48
2023-03-31T04:45:46.614Z,4.52
2023-03-31T04:46:48.662Z,4.61
2023-03-31T04:47:50.861Z,4.56
2023-03-31T04:48:52.953Z,4.46
2023-03-31T04:49:55.850Z,4.49
2023-03-31T04:50:57.949Z,4.50
2023-03-31T04:52:00.383Z,4.42
2023-03-31T04:53:03.918Z,4.47
2023-03-31T04:54:06.108Z,4.52
2023-03-31T04:55:08.554Z,4.47
2023-03-31T04:56:10.987Z,4.47
2023-03-31T04:57:13.065Z,4.49
2023-03-31T04:58:15.559Z,4.57
2023-03-31T04:59:17.599Z,4.47
2023-03-31T05:00:20.636Z,4.42
2023-03-31T05:01:22.815Z,4.41
2023-03-31T05:02:25.601Z,4.47
2023-03-31T05:03:27.911Z,4.53
2023-03-31T05:04:30.105Z,4.50
2023-03-31T05:05:32.184Z,4.51
2023-03-31T05:06:34.257Z,4.55
2023-03-31T05:07:36.250Z,4.64
2023-03-31T05:08:38.246Z,4.63
2023-03-31T05:09:40.481Z,4.66
2023-03-31T05:10:42.553Z,4.73
2023-03-31T05:11:44.539Z,4.95
2023-03-31T05:12:46.819Z,5.12
2023-03-31T05:13:48.768Z,5.22
2023-03-31T05:14:51.136Z,5.34
2023-03-31T05:15:53.095Z,5.44
2023-03-31T05:16:58.236Z,5.38
2023-03-31T05:18:00.395Z,5.28
2023-03-31T05:19:02.414Z,5.20
2023-03-31T05:20:08.587Z,5.15
2023-03-31T05:21:15.286Z,5.26
2023-03-31T05:22:20.815Z,5.32
2023-03-31T05:23:23.058Z,5.47
2023-03-31T05:24:25.018Z,5.63
2023-03-31T05:25:32.854Z,5.75
2023-03-31T05:26:34.966Z,5.83
2023-03-31T05:27:37.016Z,5.93
2023-03-31T05:28:39.004Z,5.85
2023-03-31T05:29:41.624Z,5.81
2023-03-31T05:30:43.778Z,5.71
2023-03-31T05:31:46.148Z,5.60
2023-03-31T05:32:48.190Z,5.61
2023-03-31T05:33:50.523Z,5.67
2023-03-31T05:34:53.017Z,5.81
2023-03-31T05:35:55.529Z,5.87
2023-03-31T05:36:57.915Z,5.93
2023-03-31T05:38:00.111Z,5.98
2023-03-31T05:39:02.397Z,6.03
2023-03-31T05:40:05.292Z,6.12
2023-03-31T05:41:09.691Z,6.09
2023-03-31T05:42:12.279Z,6.12
2023-03-31T05:43:14.688Z,6.03
2023-03-31T05:44:16.794Z,5.97
2023-03-31T05:45:18.792Z,5.92
2023-03-31T05:46:21.033Z,5.90
2023-03-31T05:47:23.380Z,5.79
2023-03-31T05:48:25.384Z,5.63
2023-03-31T05:49:27.316Z,5.66
2023-03-31T05:50:29.390Z,5.70
2023-03-31T05:51:31.482Z,5.70
2023-03-31T05:52:34.060Z,5.72
2023-03-31T05:53:36.221Z,5.68
2023-03-31T05:54:38.328Z,5.78
2023-03-31T05:55:41.225Z,5.81
2023-03-31T05:56:43.206Z,5.85
2023-03-31T05:57:45.251Z,5.78
2023-03-31T05:58:47.525Z,5.70
2023-03-31T05:59:49.493Z,5.82
2023-03-31T06:00:54.012Z,6.06
2023-03-31T06:01:56.174Z,6.28
2023-03-31T06:02:59.466Z,6.45
2023-03-31T06:04:02.125Z,6.28
2023-03-31T06:05:04.445Z,6.24
2023-03-31T06:06:08.321Z,6.22
2023-03-31T06:07:10.319Z,6.26
2023-03-31T06:08:12.404Z,6.20
2023-03-31T06:09:14.501Z,6.38
2023-03-31T06:10:16.724Z,6.51
2023-03-31T06:11:21.444Z,6.61
2023-03-31T06:12:23.336Z,6.75
2023-03-31T06:13:25.460Z,6.62
2023-03-31T06:14:28.262Z,6.47
2023-03-31T06:15:30.820Z,6.39
2023-03-31T06:16:33.355Z,6.17
2023-03-31T06:17:37.309Z,6.18
2023-03-31T06:18:41.314Z,6.04
2023-03-31T06:19:43.424Z,6.00
2023-03-31T06:20:45.885Z,6.07
2023-03-31T06:21:47.958Z,6.05
2023-03-31T06:22:50.277Z,6.01
2023-03-31T06:23:56.218Z,5.99
2023-03-31T06:24:58.128Z,6.15
2023-03-31T06:26:08.569Z,6.17
2023-03-31T06:27:10.533Z,6.14
2023-03-31T06:28:12.697Z,6.04
2023-03-31T06:29:14.834Z,6.04
2023-03-31T06:30:17.044Z,6.21
2023-03-31T06:31:21.756Z,6.26
2023-03-31T06:32:23.837Z,6.29
2023-03-31T06:33:25.903Z,6.28
2023-03-31T06:34:28.101Z,6.42
2023-03-31T06:35:30.224Z,6.32
2023-03-31T06:36:32.527Z,6.29
2023-03-31T06:37:34.629Z,6.32
2023-03-31T06:38:40.717Z,6.27
2023-03-31T06:39:47.143Z,6.29
2023-03-31T06:40:49.125Z,6.32
2023-03-31T06:41:51.005Z,6.32
2023-03-31T06:42:53.213Z,6.34
2023-03-31T06:43:55.452Z,6.40
2023-03-31T06:44:57.567Z,6.47
2023-03-31T06:45:59.676Z,6.52
2023-03-31T06:47:01.692Z,6.54
2023-03-31T06:48:03.814Z,6.54
2023-03-31T06:49:05.961Z,6.62
2023-03-31T06:50:09.822Z,6.70
2023-03-31T06:51:13.235Z,6.92
2023-03-31T06:52:15.685Z,6.92
2023-03-31T06:53:18.079Z,6.83
2023-03-31T06:54:20.136Z,6.75
2023-03-31T06:55:22.324Z,6.76
2023-03-31T06:56:24.583Z,6.81
2023-03-31T06:57:28.068Z,6.83
2023-03-31T06:58:31.639Z,6.80
2023-03-31T06:59:33.890Z,6.80
2023-03-31T07:00:35.858Z,6.78
2023-03-31T07:01:39.298Z,6.79
2023-03-31T07:02:41.452Z,6.80
2023-03-31T07:03:43.699Z,6.76
2023-03-31T07:04:45.742Z,6.83
2023-03-31T07:05:52.907Z,6.84
2023-03-31T07:06:54.866Z,6.87
2023-03-31T07:07:58.620Z,6.88
2023-03-31T07:09:00.850Z,6.89
2023-03-31T07:10:02.813Z,6.95
2023-03-31T07:11:05.627Z,6.95
2023-03-31T07:12:07.996Z,6.96
2023-03-31T07:13:10.070Z,7.04
2023-03-31T07:14:12.203Z,7.07
2023-03-31T07:15:14.190Z,7.17
2023-03-31T07:16:16.974Z,7.19
2023-03-31T07:17:18.986Z,7.17
2023-03-31T07:18:21.731Z,7.19
2023-03-31T07:19:23.996Z,7.18
2023-03-31T07:20:26.017Z,7.22
2023-03-31T07:21:28.051Z,7.16
2023-03-31T07:22:30.702Z,7.18
2023-03-31T07:23:32.885Z,7.21
2023-03-31T07:24:34.978Z,7.27
2023-03-31T07:25:36.942Z,7.22
2023-03-31T07:26:38.926Z,7.22
2023-03-31T07:27:40.862Z,7.33
2023-03-31T07:28:43.113Z,7.45
2023-03-31T07:29:45.243Z,7.45
2023-03-31T07:30:47.372Z,7.40
2023-03-31T07:31:49.348Z,7.36
2023-03-31T07:32:52.477Z,7.35
2023-03-31T07:33:54.617Z,7.34
2023-03-31T07:34:56.712Z,7.35
2023-03-31T07:36:10.554Z,7.30
2023-03-31T07:37:13.536Z,7.30
2023-03-31T07:38:15.501Z,7.32
2023-03-31T07:39:17.647Z,7.28
2023-03-31T07:40:29.079Z,7.31
2023-03-31T07:41:31.360Z,7.32
2023-03-31T07:42:34.717Z,7.32
2023-03-31T07:43:36.988Z,7.35
2023-03-31T07:44:38.945Z,7.21
2023-03-31T07:45:41.283Z,7.20
2023-03-31T07:46:43.536Z,7.07
2023-03-31T07:47:46.702Z,7.11
2023-03-31T07:48:49.275Z,7.08
2023-03-31T07:49:51.305Z,7.01
2023-03-31T07:50:53.231Z,6.95
2023-03-31T07:51:55.453Z,6.97
2023-03-31T07:52:57.600Z,6.91
2023-03-31T07:53:59.686Z,6.88
2023-03-31T07:55:01.750Z,6.88
2023-03-31T07:56:05.350Z,6.85
2023-03-31T07:57:08.737Z,6.88
2023-03-31T07:58:12.233Z,6.89
2023-03-31T07:59:14.572Z,6.88
2023-03-31T08:00:17.459Z,6.95
2023-03-31T08:01:21.826Z,7.00
2023-03-31T08:02:24.055Z,7.05
2023-03-31T08:03:26.630Z,7.07
2023-03-31T08:04:28.692Z,7.18
2023-03-31T08:05:30.852Z,7.11
2023-03-31T08:06:32.886Z,7.15
2023-03-31T08:07:36.837Z,7.14
2023-03-31T08:08:43.285Z,7.11
2023-03-31T08:09:46.713Z,7.14
2023-03-31T08:10:48.974Z,7.09
2023-03-31T08:11:51.064Z,7.14
2023-03-31T08:12:53.736Z,7.18
2023-03-31T08:13:55.884Z,7.26
2023-03-31T08:14:58.133Z,7.30
2023-03-31T08:16:00.343Z,7.29
2023-03-31T08:17:02.655Z,7.16
2023-03-31T08:18:05.169Z,7.17
2023-03-31T08:19:07.333Z,7.12
2023-03-31T08:20:10.665Z,7.11
2023-03-31T08:21:12.900Z,7.25
2023-03-31T08:22:15.027Z,7.32
2023-03-31T08:23:17.082Z,7.27
2023-03-31T08:24:19.813Z,7.31
2023-03-31T08:25:22.054Z,7.47
2023-03-31T08:26:27.522Z,7.53
2023-03-31T08:27:32.765Z,7.53
2023-03-31T08:28:34.747Z,7.57
2023-03-31T08:29:36.821Z,7.64
2023-03-31T08:30:39.356Z,7.73
2023-03-31T08:31:41.606Z,7.66
2023-03-31T08:32:43.721Z,7.68
2023-03-31T08:33:46.981Z,7.74
2023-03-31T08:34:48.941Z,7.75
2023-03-31T08:35:51.218Z,7.79
2023-03-31T08:36:53.336Z,7.84
2023-03-31T08:37:55.869Z,7.91
2023-03-31T08:38:57.998Z,7.97
2023-03-31T08:40:00.575Z,8.01
2023-03-31T08:41:04.167Z,8.04
2023-03-31T08:42:20.310Z,8.05
2023-03-31T08:43:30.632Z,7.91
2023-03-31T08:44:43.136Z,7.92
2023-03-31T08:45:48.030Z,7.89
2023-03-31T08:46:52.920Z,7.98
2023-03-31T08:48:20.871Z,7.95
2023-03-31T08:49:24.312Z,7.91
2023-03-31T08:50:31.084Z,7.92
2023-03-31T08:51:56.819Z,7.77
2023-03-31T08:53:06.292Z,7.70
2023-03-31T08:54:16.586Z,7.74
2023-03-31T08:55:22.953Z,7.79
2023-03-31T08:56:27.399Z,7.66
2023-03-31T08:57:37.138Z,7.64
2023-03-31T08:58:47.862Z,7.57
2023-03-31T08:59:51.334Z,7.51
2023-03-31T09:01:08.588Z,7.46
2023-03-31T09:02:29.307Z,7.47
2023-03-31T09:03:55.836Z,7.50
2023-03-31T09:05:18.371Z,7.39
2023-03-31T09:06:30.256Z,7.35
2023-03-31T09:07:53.391Z,7.23
2023-03-31T09:09:02.110Z,7.27
2023-03-31T09:10:13.199Z,7.10
2023-03-31T09:11:23.107Z,7.05
2023-03-31T09:12:53.038Z,7.15
2023-03-31T09:14:13.653Z,7.10
2023-03-31T09:15:28.937Z,7.03
2023-03-31T09:17:03.024Z,7.03
2023-03-31T09:18:18.187Z,6.98
2023-03-31T09:19:43.440Z,6.99
2023-03-31T09:20:50.773Z,7.11
2023-03-31T09:21:56.027Z,7.03
2023-03-31T09:23:17.906Z,6.98
2023-03-31T09:24:41.404Z,6.83
2023-03-31T09:25:45.020Z,6.81
2023-03-31T09:27:05.729Z,6.80
2023-03-31T09:28:19.196Z,6.81
2023-03-31T09:29:42.501Z,6.76
2023-03-31T09:30:49.898Z,6.77
2023-03-31T09:31:51.987Z,6.75
2023-03-31T09:33:07.130Z,6.74
2023-03-31T09:34:15.960Z,6.83
2023-03-31T09:35:26.847Z,6.82
2023-03-31T09:36:29.224Z,6.82
2023-03-31T09:37:33.403Z,6.84
2023-03-31T09:38:42.881Z,6.88
2023-03-31T09:39:45.081Z,6.90
2023-03-31T09:40:47.997Z,6.99
2023-03-31T09:41:52.370Z,6.97
2023-03-31T09:43:00.657Z,7.00
2023-03-31T09:44:03.196Z,7.02
2023-03-31T09:45:05.910Z,7.12
2023-03-31T09:46:40.206Z,7.08
2023-03-31T09:47:45.178Z,6.97
2023-03-31T09:49:04.455Z,7.07
2023-03-31T09:50:08.377Z,6.99
2023-03-31T09:51:20.755Z,7.02
2023-03-31T09:52:25.747Z,7.04
2023-03-31T09:53:38.718Z,7.20
2023-03-31T09:54:51.908Z,7.17
2023-03-31T09:55:57.383Z,7.13
2023-03-31T09:56:59.468Z,7.07
2023-03-31T09:58:02.282Z,7.09
2023-03-31T09:59:04.743Z,7.11
2023-03-31T10:00:16.800Z,7.14
2023-03-31T10:01:19.078Z,7.17
2023-03-31T10:02:35.818Z,7.26
2023-03-31T10:03:56.204Z,7.28
2023-03-31T10:04:58.449Z,7.35
2023-03-31T10:06:00.744Z,7.33
2023-03-31T10:07:05.867Z,7.27
2023-03-31T10:08:17.159Z,7.21
2023-03-31T10:09:24.718Z,7.26
2023-03-31T10:10:33.321Z,7.15
2023-03-31T10:11:35.531Z,7.13
2023-03-31T10:12:37.778Z,7.08
2023-03-31T10:14:13.434Z,7.12
2023-03-31T10:15:25.940Z,7.16
2023-03-31T10:16:55.670Z,7.25
2023-03-31T10:17:59.866Z,7.28
2023-03-31T10:19:29.292Z,7.17
2023-03-31T10:20:37.278Z,7.29
2023-03-31T10:21:39.652Z,7.36
2023-03-31T10:22:45.800Z,7.27
2023-03-31T10:23:48.984Z,7.23
2023-03-31T10:24:52.451Z,7.23
2023-03-31T10:25:54.878Z,7.22
2023-03-31T10:26:57.845Z,7.23
2023-03-31T10:28:02.552Z,7.25
2023-03-31T10:29:12.726Z,7.26
2023-03-31T10:30:38.629Z,7.22
2023-03-31T10:31:40.919Z,7.10
2023-03-31T10:32:43.707Z,7.09
2023-03-31T10:33:49.347Z,7.20
2023-03-31T10:34:51.753Z,7.30
2023-03-31T10:35:59.556Z,7.29
2023-03-31T10:37:04.964Z,7.22
2023-03-31T10:38:13.346Z,7.13
2023-03-31T10:39:17.358Z,7.17
2023-03-31T10:40:23.754Z,7.14
2023-03-31T10:41:28.948Z,7.07
2023-03-31T10:42:30.926Z,7.07
2023-03-31T10:43:48.222Z,7.09
2023-03-31T10:44:50.274Z,7.11
2023-03-31T10:45:57.420Z,7.13
2023-03-31T10:47:14.478Z,7.18
2023-03-31T10:48:28.978Z,7.19
2023-03-31T10:49:37.215Z,7.08
2023-03-31T10:50:43.135Z,7.11
2023-03-31T10:51:59.704Z,7.24
2023-03-31T10:53:03.708Z,7.32
2023-03-31T10:54:09.462Z,7.15
2023-03-31T10:55:31.639Z,7.06
2023-03-31T10:56:49.011Z,6.94
2023-03-31T10:58:06.441Z,6.90
2023-03-31T10:59:20.584Z,6.90
2023-03-31T11:00:44.250Z,6.88
2023-03-31T11:02:04.587Z,6.90
2023-03-31T11:03:28.648Z,6.95
2023-03-31T11:04:52.465Z,6.88
2023-03-31T11:06:29.054Z,6.97
2023-03-31T11:07:51.984Z,6.92
2023-03-31T11:08:59.936Z,6.82
2023-03-31T11:10:07.906Z,6.77
2023-03-31T11:11:32.168Z,6.70
2023-03-31T11:12:52.148Z,6.73
2023-03-31T11:14:06.521Z,6.73
2023-03-31T11:15:21.407Z,6.82
2023-03-31T11:16:33.603Z,6.72
2023-03-31T11:18:06.998Z,6.61
2023-03-31T11:19:29.682Z,6.40
2023-03-31T11:20:46.960Z,6.37
2023-03-31T11:21:54.946Z,6.34
2023-03-31T11:23:35.748Z,6.36
2023-03-31T11:25:02.065Z,6.36
2023-03-31T11:26:34.435Z,6.36
2023-03-31T11:28:11.925Z,6.31
2023-03-31T11:29:16.614Z,6.28
2023-03-31T11:30:57.046Z,6.18
2023-03-31T11:32:12.931Z,6.24
2023-03-31T11:33:28.393Z,6.18
2023-03-31T11:35:16.189Z,6.22
2023-03-31T11:36:36.974Z,6.21
2023-03-31T11:37:57.769Z,6.23
2023-03-31T11:39:24.373Z,6.23
2023-03-31T11:40:53.384Z,6.18
2023-03-31T11:42:03.347Z,6.28
2023-03-31T11:43:19.881Z,6.25
2023-03-31T11:44:24.582Z,6.22
2023-03-31T11:45:32.918Z,6.25
2023-03-31T11:46:46.814Z,6.25
2023-03-31T11:47:55.602Z,6.19
2023-03-31T11:49:24.833Z,6.14
2023-03-31T11:50:38.797Z,6.11
2023-03-31T11:51:56.631Z,6.22
2023-03-31T11:53:15.048Z,6.25
2023-03-31T11:54:27.552Z,6.17
2023-03-31T11:55:32.617Z,6.15
2023-03-31T11:56:39.020Z,6.15
2023-03-31T11:58:13.215Z,6.17
2023-03-31T11:59:18.069Z,6.26
2023-03-31T12:00:28.738Z,6.30
2023-03-31T12:01:47.525Z,6.28
2023-03-31T12:02:59.301Z,6.28
2023-03-31T12:04:36.990Z,6.24
2023-03-31T12:06:20.069Z,6.17
2023-03-31T12:07:42.107Z,6.20
2023-03-31T12:08:51.370Z,6.24
2023-03-31T12:10:05.835Z,6.06
2023-03-31T12:11:16.884Z,5.96
2023-03-31T12:12:29.747Z,5.85
2023-03-31T12:13:32.096Z,5.75
2023-03-31T12:14:37.161Z,5.71
2023-03-31T12:15:46.470Z,5.70
2023-03-31T12:16:54.068Z,5.63
2023-03-31T12:18:21.484Z,5.63
2023-03-31T12:19:36.858Z,5.60
2023-03-31T12:20:47.004Z,5.59
2023-03-31T12:21:55.653Z,5.52
2023-03-31T12:23:00.689Z,5.49
2023-03-31T12:24:02.849Z,5.43
2023-03-31T12:25:05.816Z,5.45
2023-03-31T12:26:32.311Z,5.41
2023-03-31T12:27:47.398Z,5.29
2023-03-31T12:29:01.735Z,5.23
2023-03-31T12:30:27.478Z,5.22
2023-03-31T12:31:33.411Z,5.13
2023-03-31T12:32:41.125Z,5.09
2023-03-31T12:34:03.160Z,5.08
2023-03-31T12:35:29.629Z,5.17
2023-03-31T12:36:40.825Z,5.06
2023-03-31T12:38:05.389Z,5.03
2023-03-31T12:39:25.467Z,4.99
2023-03-31T12:40:45.974Z,5.01
2023-03-31T12:42:06.321Z,4.96
2023-03-31T12:43:26.764Z,4.95
2023-03-31T12:44:46.014Z,4.96
2023-03-31T12:46:03.192Z,4.97
2023-03-31T12:47:24.893Z,4.99
2023-03-31T12:48:36.043Z,4.94
2023-03-31T12:50:05.515Z,4.98
2023-03-31T12:51:16.332Z,4.96
2023-03-31T12:52:43.717Z,4.97
2023-03-31T12:54:31.333Z,4.99
2023-03-31T12:55:39.054Z,4.97
2023-03-31T12:57:04.067Z,4.96
2023-03-31T12:58:32.300Z,4.96
2023-03-31T12:59:39.693Z,4.92
2023-03-31T13:01:07.247Z,4.92
2023-03-31T13:02:15.489Z,4.89
2023-03-31T13:03:36.173Z,4.90
2023-03-31T13:04:39.221Z,4.88
2023-03-31T13:05:47.632Z,4.88
2023-03-31T13:06:59.693Z,4.91
2023-03-31T13:08:02.765Z,4.87
2023-03-31T13:09:14.068Z,4.88
2023-03-31T13:10:19.179Z,4.88
2023-03-31T13:11:36.689Z,4.88
2023-03-31T13:12:38.868Z,4.89
2023-03-31T13:14:07.306Z,4.89
2023-03-31T13:15:15.006Z,4.90
2023-03-31T13:16:20.560Z,4.88
2023-03-31T13:17:29.160Z,4.87
2023-03-31T13:18:34.410Z,4.86
2023-03-31T13:19:37.798Z,4.80
2023-03-31T13:20:42.249Z,4.77
2023-03-31T13:21:53.515Z,4.74
2023-03-31T13:23:07.735Z,4.75
2023-03-31T13:24:09.810Z,4.76
2023-03-31T13:25:42.147Z,4.80
2023-03-31T13:26:47.862Z,4.77
2023-03-31T13:27:50.536Z,4.68
2023-03-31T13:29:11.119Z,4.71
2023-03-31T13:30:38.937Z,4.69
2023-03-31T13:32:02.869Z,4.67
2023-03-31T13:33:10.217Z,4.60
2023-03-31T13:34:12.886Z,4.59
2023-03-31T13:35:21.537Z,4.58
2023-03-31T13:36:32.429Z,4.59
2023-03-31T13:38:00.339Z,4.53
2023-03-31T13:39:31.128Z,4.50
2023-03-31T13:40:51.642Z,4.49
2023-03-31T13:42:23.949Z,4.44
2023-03-31T13:43:49.034Z,4.41
2023-03-31T13:44:51.603Z,4.39
2023-03-31T13:46:15.280Z,4.40
2023-03-31T13:47:17.364Z,4.40
2023-03-31T13:48:50.841Z,4.41
2023-03-31T13:50:31.921Z,4.39
2023-03-31T13:52:03.510Z,4.35
2023-03-31T13:53:24.112Z,4.35
2023-03-31T13:54:50.049Z,4.31
2023-03-31T13:56:12.486Z,4.40
2023-03-31T13:57:28.628Z,4.37
2023-03-31T13:58:55.729Z,4.38
2023-03-31T14:00:25.263Z,4.33
2023-03-31T14:01:41.368Z,4.33
2023-03-31T14:03:25.206Z,4.30
2023-03-31T14:04:41.223Z,4.30
2023-03-31T14:05:52.603Z,4.29
2023-03-31T14:07:07.730Z,4.30
2023-03-31T14:08:32.929Z,4.28
2023-03-31T14:09:36.845Z,4.28
2023-03-31T14:10:41.639Z,4.26
2023-03-31T14:11:43.702Z,4.24
2023-03-31T14:12:47.872Z,4.25
2023-03-31T14:14:12.775Z,4.23
2023-03-31T14:15:20.643Z,4.21
2023-03-31T14:16:23.403Z,4.20
2023-03-31T14:17:31.659Z,4.21
2023-03-31T14:18:38.276Z,4.22
2023-03-31T14:20:14.337Z,4.27
2023-03-31T14:21:30.008Z,4.27
2023-03-31T14:22:34.655Z,4.28
2023-03-31T14:24:12.095Z,4.26
2023-03-31T14:25:31.841Z,4.25
2023-03-31T14:26:55.111Z,4.25
2023-03-31T14:28:29.772Z,4.22
2023-03-31T14:30:02.306Z,4.21
2023-03-31T14:31:26.748Z,4.22
2023-03-31T14:32:46.842Z,4.20
2023-03-31T14:34:00.889Z,4.17
2023-03-31T14:35:38.909Z,4.16
2023-03-31T14:37:02.136Z,4.14
2023-03-31T14:38:07.279Z,4.10
2023-03-31T14:39:12.149Z,4.09
2023-03-31T14:40:17.403Z,4.08
2023-03-31T14:41:21.486Z,4.06
2023-03-31T14:42:33.214Z,4.06
2023-03-31T14:43:41.185Z,4.05
2023-03-31T14:44:47.011Z,4.06
2023-03-31T14:46:10.708Z,4.07
2023-03-31T14:47:23.625Z,4.04
2023-03-31T14:48:29.613Z,4.02
2023-03-31T14:49:38.879Z,4.01
2023-03-31T14:50:46.867Z,4.05
2023-03-31T14:51:49.052Z,4.04
2023-03-31T14:52:53.025Z,4.06
2023-03-31T14:54:02.790Z,4.09
2023-03-31T14:55:05.332Z,4.09
2023-03-31T14:56:12.591Z,4.10
2023-03-31T14:57:21.717Z,4.09
2023-03-31T14:58:30.592Z,4.07
2023-03-31T14:59:35.440Z,4.07
2023-03-31T15:00:40.589Z,4.11
2023-03-31T15:01:46.585Z,4.09
2023-03-31T15:02:48.730Z,4.11
2023-03-31T15:03:53.368Z,4.11
2023-03-31T15:04:56.834Z,4.14
2023-03-31T15:06:00.968Z,4.15
2023-03-31T15:07:05.247Z,4.13
2023-03-31T15:08:29.824Z,4.16
2023-03-31T15:09:35.266Z,4.11
2023-03-31T15:10:45.756Z,4.13
2023-03-31T15:11:53.720Z,4.14
2023-03-31T15:12:55.667Z,4.11
2023-03-31T15:14:05.117Z,4.10
2023-03-31T15:15:09.176Z,4.11
2023-03-31T15:16:21.158Z,4.14
2023-03-31T15:17:26.783Z,4.12
2023-03-31T15:18:28.918Z,4.12
2023-03-31T15:19:36.188Z,4.15
2023-03-31T15:20:40.938Z,4.13